Time;durP1;ratioP1;P1;durP2;ratioP2;P2;SDS_P1;SDS_P2;PMS_P1;PMS_P2;Temp;Humidity;BMP_temperature;BMP_pressure;BME280_temperature;BME280_humidity;BME280_pressure;Samples;Min_cycle;Max_cycle;Signal;HPM_P1;HPM_P2
2022/10/05 00:00:38;;;;;;;;;;;;;;;9.83;64.81;96159.16;5115923;28;2004;-64
2022/10/05 00:03:09;;;;;;;;;;;;;;;9.90;64.00;96168.31;5117518;28;1021;-64
2022/10/05 00:05:36;;;;;;;;;;;;;;;9.77;65.71;96166.72;5117320;28;981;-64
2022/10/05 00:08:11;;;;;;;;;;;;;;;9.76;64.80;96174.84;5096591;28;1269;-64
2022/10/05 00:10:40;;;;;;;;;;;;;;;9.82;64.43;96173.47;5095550;28;1000;-63
2022/10/05 00:13:32;;;;;;;;;;;;;;;9.77;65.14;96172.06;5096629;28;1041;-64
2022/10/05 00:16:03;;;;;;;;;;;;;;;9.87;65.01;96168.59;5095171;28;1169;-64
2022/10/05 00:18:31;;;;;;;;;;;;;;;9.87;65.49;96172.09;5096572;28;1045;-64
2022/10/05 00:20:57;;;;;;;;;;;;;;;9.81;65.42;96167.28;5095252;28;1993;-64
2022/10/05 00:23:25;;;;;;;;;;;;;;;9.81;65.07;96166.44;5095251;28;1004;-63
2022/10/05 00:25:51;;;;;;;;;;;;;;;9.82;65.83;96165.47;5096282;28;1085;-64
2022/10/05 00:28:28;;;;;;;;;;;;;;;9.73;64.45;96159.06;5096659;28;950;-64
2022/10/05 00:30:56;;;;;;;;;;;;;;;9.57;64.23;96165.72;5096395;28;1012;-64
2022/10/05 00:33:22;;;;;;;;;;;;;;;9.41;64.28;96176.03;5096447;28;973;-63
2022/10/05 00:35:48;;;;;;;;;;;;;;;9.42;64.97;96172.38;5094952;28;1064;-64
2022/10/05 00:38:14;;;;;;;;;;;;;;;9.51;64.61;96176.09;5096168;28;988;-64
2022/10/05 00:40:40;;;;;;;;;;;;;;;9.46;65.32;96178.28;5096263;28;1990;-64
2022/10/05 00:43:12;;;;;;;;;;;;;;;9.46;65.13;96176.47;5096329;28;1001;-64
2022/10/05 00:45:45;;;;;;;;;;;;;;;9.54;64.94;96182.03;5094813;28;1107;-64
2022/10/05 00:48:14;;;;;;;;;;;;;;;9.52;65.26;96183.09;5096100;28;1057;-64
2022/10/05 00:50:40;;;;;;;;;;;;;;;9.34;66.05;96177.50;5095812;28;1040;-64
2022/10/05 00:53:27;;;;;;;;;;;;;;;9.43;65.61;96175.88;5095909;28;1205;-63
2022/10/05 00:55:58;;;;;;;;;;;;;;;9.39;65.48;96175.31;5095700;28;1274;-64
2022/10/05 00:58:56;;;;;;;;;;;;;;;9.33;65.66;96174.00;5095869;28;1104;-64
2022/10/05 01:01:34;;;;;;;;;;;;;;;9.25;65.76;96173.78;5082369;28;2000;-64
2022/10/05 01:04:03;;;;;;;;;;;;;;;9.36;65.89;96171.06;5095691;28;1065;-64
2022/10/05 01:06:55;;;;;;;;;;;;;;;9.35;65.78;96179.19;5103011;28;1256;-64
2022/10/05 01:09:27;;;;;;;;;;;;;;;9.28;65.63;96176.19;5107337;28;1116;-64
2022/10/05 01:11:56;;;;;;;;;;;;;;;9.31;65.23;96175.91;5115890;28;1080;-64
2022/10/05 01:14:45;;;;;;;;;;;;;;;9.32;64.67;96185.63;5116122;28;1013;-64
2022/10/05 01:17:15;;;;;;;;;;;;;;;9.18;65.40;96194.81;5112741;28;1225;-64
2022/10/05 01:19:54;;;;;;;;;;;;;;;9.24;66.04;96193.44;5115758;28;1913;-63
2022/10/05 01:22:22;;;;;;;;;;;;;;;9.11;65.30;96193.59;5115840;28;1128;-64
2022/10/05 01:24:56;;;;;;;;;;;;;;;9.06;65.28;96192.28;5114610;28;972;-63
2022/10/05 01:27:46;;;;;;;;;;;;;;;9.13;65.21;96189.00;5114568;28;1048;-63
2022/10/05 01:30:13;;;;;;;;;;;;;;;9.19;65.52;96188.47;5112432;28;1160;-63
2022/10/05 01:32:46;;;;;;;;;;;;;;;9.29;65.46;96188.56;5115526;28;1079;-64
2022/10/05 01:35:26;;;;;;;;;;;;;;;9.34;64.90;96196.19;5115686;28;1035;-63
2022/10/05 01:38:11;;;;;;;;;;;;;;;9.19;65.24;96193.81;5114204;28;1095;-64
2022/10/05 01:41:09;;;;;;;;;;;;;;;8.99;65.10;96191.94;5115259;27;1976;-64
2022/10/05 01:43:35;;;;;;;;;;;;;;;9.16;64.27;96202.09;5091500;28;1386;-64
2022/10/05 01:46:04;;;;;;;;;;;;;;;9.14;64.65;96204.03;5115532;28;1034;-63
2022/10/05 01:48:44;;;;;;;;;;;;;;;9.03;65.31;96197.88;5114148;28;1051;-64
2022/10/05 01:51:12;;;;;;;;;;;;;;;8.98;64.23;96204.44;5115182;28;1045;-63
2022/10/05 01:53:38;;;;;;;;;;;;;;;8.88;65.25;96200.84;5115312;28;1027;-63
2022/10/05 01:56:04;;;;;;;;;;;;;;;8.89;65.79;96194.50;5115326;28;1074;-64
2022/10/05 01:58:48;;;;;;;;;;;;;;;8.96;65.77;96202.88;5115081;28;798;-64
2022/10/05 02:01:27;;;;;;;;;;;;;;;9.06;65.74;96216.31;5114891;28;1905;-63
2022/10/05 02:04:01;;;;;;;;;;;;;;;9.06;65.71;96219.81;5114803;28;1039;-64
2022/10/05 02:06:30;;;;;;;;;;;;;;;9.01;66.00;96226.50;5115066;28;1290;-63
2022/10/05 02:09:01;;;;;;;;;;;;;;;8.98;65.31;96225.78;5114640;28;1103;-64
2022/10/05 02:11:27;;;;;;;;;;;;;;;8.90;64.90;96227.38;5114859;28;964;-64
2022/10/05 02:14:10;;;;;;;;;;;;;;;8.89;65.16;96231.00;5113448;28;965;-64
2022/10/05 02:16:40;;;;;;;;;;;;;;;8.82;66.21;96229.81;5114575;28;1049;-64
2022/10/05 02:19:16;;;;;;;;;;;;;;;8.79;65.57;96234.41;5113651;28;1038;-63
2022/10/05 02:21:44;;;;;;;;;;;;;;;8.78;66.04;96237.19;5113413;28;1131;-63
2022/10/05 02:24:21;;;;;;;;;;;;;;;8.67;65.75;96248.75;5114558;28;1060;-62
2022/10/05 02:26:48;;;;;;;;;;;;;;;8.80;65.12;96253.91;5114459;28;1016;-63
2022/10/05 02:29:17;;;;;;;;;;;;;;;8.65;65.26;96255.16;5114501;28;1140;-63
2022/10/05 02:31:46;;;;;;;;;;;;;;;8.76;65.56;96245.34;5113348;28;1064;-64
2022/10/05 02:34:28;;;;;;;;;;;;;;;8.72;65.43;96243.03;5114565;28;1043;-64
2022/10/05 02:37:13;;;;;;;;;;;;;;;8.73;65.87;96237.59;5114328;28;1062;-63
2022/10/05 02:39:39;;;;;;;;;;;;;;;8.77;65.52;96244.34;5114130;28;1984;-64
2022/10/05 02:42:12;;;;;;;;;;;;;;;8.74;65.57;96246.41;5114218;28;1069;-63
2022/10/05 02:44:57;;;;;;;;;;;;;;;8.76;65.70;96244.47;5114303;28;1015;-63
2022/10/05 02:47:35;;;;;;;;;;;;;;;8.69;65.55;96249.47;5114236;28;1015;-64
2022/10/05 02:50:04;;;;;;;;;;;;;;;8.67;65.96;96251.41;5114501;28;1016;-64
2022/10/05 02:52:42;;;;;;;;;;;;;;;8.69;65.74;96251.25;5114307;28;1028;-63
2022/10/05 02:55:14;;;;;;;;;;;;;;;8.65;65.75;96250.69;5114181;28;1178;-63
2022/10/05 02:57:46;;;;;;;;;;;;;;;8.69;65.54;96254.81;5114068;28;976;-63
2022/10/05 03:00:14;;;;;;;;;;;;;;;8.64;65.84;96251.66;5112588;28;2098;-63
2022/10/05 03:02:58;;;;;;;;;;;;;;;8.65;65.44;96260.50;5112870;28;1067;-63
2022/10/05 03:05:30;;;;;;;;;;;;;;;8.63;65.29;96257.94;5113952;28;1067;-63
2022/10/05 03:08:02;;;;;;;;;;;;;;;8.51;65.59;96264.25;5093977;28;1235;-64
2022/10/05 03:10:34;;;;;;;;;;;;;;;8.55;65.60;96260.38;5093457;28;1045;-64
2022/10/05 03:13:00;;;;;;;;;;;;;;;8.55;65.82;96263.88;5093375;28;1056;-64
2022/10/05 03:15:37;;;;;;;;;;;;;;;8.56;65.85;96275.41;5093597;28;965;-63
2022/10/05 03:18:06;;;;;;;;;;;;;;;8.57;65.88;96277.09;5092192;28;1056;-64
2022/10/05 03:20:41;;;;;;;;;;;;;;;8.48;65.82;96272.47;5093218;28;1905;-63
2022/10/05 03:23:13;;;;;;;;;;;;;;;8.42;65.82;96270.31;5091621;28;1022;-64
2022/10/05 03:26:00;;;;;;;;;;;;;;;8.45;65.52;96273.59;5093209;28;1037;-63
2022/10/05 03:28:26;;;;;;;;;;;;;;;8.52;66.17;96273.97;5092257;28;945;-63
2022/10/05 03:30:52;;;;;;;;;;;;;;;8.49;65.85;96279.53;5092063;28;1035;-63
2022/10/05 03:33:18;;;;;;;;;;;;;;;8.45;65.59;96272.75;5093252;28;1066;-63
2022/10/05 03:35:52;;;;;;;;;;;;;;;8.40;66.12;96268.59;5091880;28;1036;-63
2022/10/05 03:38:33;;;;;;;;;;;;;;;8.42;65.17;96272.97;5093436;28;1055;-62
2022/10/05 03:41:04;;;;;;;;;;;;;;;8.33;65.84;96270.03;5093196;28;1902;-62
2022/10/05 03:43:42;;;;;;;;;;;;;;;8.40;65.95;96279.25;5093212;28;1054;-63
2022/10/05 03:46:11;;;;;;;;;;;;;;;8.42;66.52;96281.81;5093117;28;977;-61
2022/10/05 03:48:43;;;;;;;;;;;;;;;8.43;66.39;96278.19;5092960;28;1021;-62
2022/10/05 03:51:38;;;;;;;;;;;;;;;8.42;65.61;96281.81;5093243;28;970;-63
2022/10/05 03:54:08;;;;;;;;;;;;;;;8.22;65.27;96280.69;5087342;28;1313;-62
2022/10/05 03:56:37;;;;;;;;;;;;;;;8.13;65.38;96284.06;5093355;28;993;-62
2022/10/05 03:59:18;;;;;;;;;;;;;;;8.17;65.49;96288.16;5092049;28;1026;-62
2022/10/05 04:01:50;;;;;;;;;;;;;;;8.24;65.64;96289.41;5092973;28;1902;-62
2022/10/05 04:04:25;;;;;;;;;;;;;;;8.25;65.58;96295.56;5091672;28;1072;-62
2022/10/05 04:06:52;;;;;;;;;;;;;;;8.06;65.80;96296.13;5103192;28;1314;-62
2022/10/05 04:09:26;;;;;;;;;;;;;;;8.05;65.86;96302.44;5113080;28;1253;-62
2022/10/05 04:12:01;;;;;;;;;;;;;;;8.10;65.83;96292.28;5113379;28;969;-62
2022/10/05 04:14:33;;;;;;;;;;;;;;;8.21;65.62;96295.81;5113414;28;1035;-62
2022/10/05 04:17:04;;;;;;;;;;;;;;;8.09;64.93;96302.09;5113202;28;1131;-62
2022/10/05 04:19:32;;;;;;;;;;;;;;;7.99;65.18;96293.94;5113137;28;1993;-61
2022/10/05 04:22:20;;;;;;;;;;;;;;;7.99;64.84;96304.59;5112977;28;1012;-62
2022/10/05 04:25:12;;;;;;;;;;;;;;;7.96;65.06;96318.16;5113175;28;1027;-61
2022/10/05 04:27:41;;;;;;;;;;;;;;;8.05;65.15;96315.78;5113034;28;1101;-62
2022/10/05 04:30:12;;;;;;;;;;;;;;;8.04;65.48;96322.88;5113052;28;1043;-62
2022/10/05 04:32:58;;;;;;;;;;;;;;;8.02;65.75;96320.38;5113248;28;1052;-61
2022/10/05 04:35:24;;;;;;;;;;;;;;;8.05;65.69;96321.09;5114033;28;1056;-62
2022/10/05 04:38:16;;;;;;;;;;;;;;;7.99;65.77;96312.59;5116670;28;1030;-62
2022/10/05 04:40:45;;;;;;;;;;;;;;;7.92;65.49;96319.34;5116455;28;1913;-62
2022/10/05 04:43:30;;;;;;;;;;;;;;;8.02;66.10;96330.16;5115613;28;1034;-62
2022/10/05 04:46:14;;;;;;;;;;;;;;;8.11;65.31;96315.28;5115404;28;1000;-62
2022/10/05 04:48:43;;;;;;;;;;;;;;;7.98;65.88;96328.69;5115207;28;1130;-62
2022/10/05 04:51:09;;;;;;;;;;;;;;;7.99;66.10;96330.41;5116279;28;1037;-61
2022/10/05 04:53:45;;;;;;;;;;;;;;;8.08;65.92;96334.16;5116471;28;1031;-61
2022/10/05 04:56:20;;;;;;;;;;;;;;;8.21;65.83;96327.78;5115143;28;1044;-61
2022/10/05 04:59:06;;;;;;;;;;;;;;;8.10;66.36;96329.56;5116289;28;1253;-62
2022/10/05 05:01:32;;;;;;;;;;;;;;;8.22;66.43;96320.66;5116084;28;1902;-62
2022/10/05 05:04:11;;;;;;;;;;;;;;;8.13;66.79;96319.53;5116310;28;1186;-62
2022/10/05 05:06:55;;;;;;;;;;;;;;;8.22;66.75;96323.31;5107580;28;1291;-63
2022/10/05 05:09:40;;;;;;;;;;;;;;;8.36;66.53;96336.41;5094547;28;1273;-63
2022/10/05 05:12:15;;;;;;;;;;;;;;;8.46;66.23;96335.72;5095547;28;997;-63
2022/10/05 05:15:00;;;;;;;;;;;;;;;8.45;66.47;96340.22;5095730;28;1035;-63
2022/10/05 05:17:45;;;;;;;;;;;;;;;8.43;67.28;96341.31;5095543;28;1049;-63
2022/10/05 05:20:20;;;;;;;;;;;;;;;8.51;66.88;96349.56;5095410;28;1993;-62
2022/10/05 05:22:52;;;;;;;;;;;;;;;8.63;67.69;96361.91;5095538;28;989;-63
2022/10/05 05:25:24;;;;;;;;;;;;;;;8.81;66.22;96356.13;5095491;28;1012;-63
2022/10/05 05:27:50;;;;;;;;;;;;;;;8.73;66.82;96370.91;5095200;28;1065;-64
2022/10/05 05:30:25;;;;;;;;;;;;;;;8.71;66.93;96369.34;5095345;28;1225;-64
2022/10/05 05:32:54;;;;;;;;;;;;;;;8.68;67.05;96380.25;5095044;28;1039;-63
2022/10/05 05:35:32;;;;;;;;;;;;;;;8.76;67.19;96373.34;5095090;28;913;-64
2022/10/05 05:38:01;;;;;;;;;;;;;;;8.89;66.70;96380.38;5095134;28;1050;-63
2022/10/05 05:40:33;;;;;;;;;;;;;;;8.87;66.62;96387.66;5094992;28;2234;-63
2022/10/05 05:43:02;;;;;;;;;;;;;;;8.92;66.70;96388.16;5094883;28;1314;-64
2022/10/05 05:45:30;;;;;;;;;;;;;;;8.96;66.64;96398.44;5094794;28;1028;-64
2022/10/05 05:47:58;;;;;;;;;;;;;;;8.97;67.12;96393.94;5094500;28;1195;-63
2022/10/05 05:50:47;;;;;;;;;;;;;;;9.04;67.30;96392.50;5093640;28;908;-63
2022/10/05 05:53:17;;;;;;;;;;;;;;;9.13;67.28;96391.78;5094958;28;1030;-63
2022/10/05 05:55:46;;;;;;;;;;;;;;;9.25;67.41;96400.63;5094626;28;1201;-63
2022/10/05 05:58:24;;;;;;;;;;;;;;;9.30;67.53;96384.25;5094692;28;1115;-63
2022/10/05 06:00:57;;;;;;;;;;;;;;;9.37;67.12;96382.75;5093473;28;1973;-62
2022/10/05 06:03:36;;;;;;;;;;;;;;;9.55;67.69;96381.28;5094750;28;981;-63
2022/10/05 06:06:08;;;;;;;;;;;;;;;9.75;67.63;96377.00;5098123;28;1299;-64
2022/10/05 06:08:43;;;;;;;;;;;;;;;9.87;68.00;96387.66;5114669;28;1178;-64
2022/10/05 06:11:22;;;;;;;;;;;;;;;10.02;67.34;96388.22;5113876;28;965;-64
2022/10/05 06:13:48;;;;;;;;;;;;;;;10.12;67.87;96381.13;5114843;28;1055;-64
2022/10/05 06:16:24;;;;;;;;;;;;;;;10.31;67.81;96385.78;5113548;28;1028;-64
2022/10/05 06:18:55;;;;;;;;;;;;;;;10.51;67.09;96394.81;5114556;28;1052;-63
2022/10/05 06:21:44;;;;;;;;;;;;;;;10.65;67.29;96397.16;5114808;28;1902;-63
2022/10/05 06:24:31;;;;;;;;;;;;;;;10.79;67.34;96403.97;5111439;28;1350;-64
2022/10/05 06:27:07;;;;;;;;;;;;;;;10.89;68.06;96406.75;5113307;28;1201;-64
2022/10/05 06:29:52;;;;;;;;;;;;;;;10.93;68.39;96400.13;5113618;28;1011;-64
2022/10/05 06:32:18;;;;;;;;;;;;;;;11.05;68.06;96406.25;5114631;28;1020;-64
2022/10/05 06:34:53;;;;;;;;;;;;;;;11.13;67.08;96409.09;5114243;28;1049;-63
2022/10/05 06:37:28;;;;;;;;;;;;;;;11.19;67.78;96410.38;5113180;28;1088;-64
2022/10/05 06:40:20;;;;;;;;;;;;;;;11.31;66.99;96412.00;5112943;28;1989;-64
2022/10/05 06:42:55;;;;;;;;;;;;;;;11.41;68.26;96412.88;5111009;28;1110;-64
2022/10/05 06:45:22;;;;;;;;;;;;;;;11.55;67.22;96422.34;5114285;28;1052;-63
2022/10/05 06:47:47;;;;;;;;;;;;;;;11.64;67.12;96429.56;5114150;28;1027;-63
2022/10/05 06:50:13;;;;;;;;;;;;;;;11.68;66.55;96428.31;5113980;28;1056;-63
2022/10/05 06:52:39;;;;;;;;;;;;;;;11.75;66.47;96443.88;5114259;28;946;-63
2022/10/05 06:55:20;;;;;;;;;;;;;;;11.77;66.60;96440.06;5114209;28;1126;-64
2022/10/05 06:58:05;;;;;;;;;;;;;;;12.03;65.71;96442.28;5113340;28;1016;-64
2022/10/05 07:00:42;;;;;;;;;;;;;;;12.04;65.64;96449.31;5112633;28;2000;-63
2022/10/05 07:03:08;;;;;;;;;;;;;;;12.10;65.49;96436.22;5112717;28;1096;-63
2022/10/05 07:05:49;;;;;;;;;;;;;;;12.23;65.42;96440.44;5112907;28;949;-64
2022/10/05 07:08:36;;;;;;;;;;;;;;;12.31;65.12;96435.22;5093281;28;1214;-64
2022/10/05 07:11:17;;;;;;;;;;;;;;;12.34;64.15;96432.28;5093286;28;1236;-64
2022/10/05 07:14:01;;;;;;;;;;;;;;;12.40;64.24;96433.53;5093567;28;979;-64
2022/10/05 07:16:31;;;;;;;;;;;;;;;12.56;63.81;96438.34;5093556;28;1051;-64
2022/10/05 07:19:07;;;;;;;;;;;;;;;12.74;64.58;96438.47;5093238;28;1037;-63
2022/10/05 07:21:34;;;;;;;;;;;;;;;12.89;63.95;96450.47;5093329;28;1914;-64
2022/10/05 07:24:00;;;;;;;;;;;;;;;13.03;64.65;96449.16;5093548;28;949;-65
2022/10/05 07:26:31;;;;;;;;;;;;;;;13.23;63.77;96456.19;5093469;28;1019;-64
2022/10/05 07:29:19;;;;;;;;;;;;;;;13.43;63.24;96450.75;5093398;28;1043;-63
2022/10/05 07:31:46;;;;;;;;;;;;;;;13.58;62.35;96437.69;5093280;28;1155;-65
2022/10/05 07:34:32;;;;;;;;;;;;;;;13.85;61.26;96437.72;5091962;28;1072;-64
2022/10/05 07:39:55;;;;;;;;;;;;;;;14.62;58.71;96424.72;5093075;28;1965;-64
2022/10/05 07:42:41;;;;;;;;;;;;;;;14.72;57.94;96421.97;5093140;28;1282;-62
2022/10/05 07:45:13;;;;;;;;;;;;;;;15.43;57.38;96431.69;5093162;28;1025;-63
2022/10/05 07:47:49;;;;;;;;;;;;;;;15.75;55.64;96437.47;5093003;28;1041;-65
2022/10/05 07:50:18;;;;;;;;;;;;;;;15.79;54.99;96442.34;5093177;28;1068;-65
2022/10/05 07:52:54;;;;;;;;;;;;;;;16.04;55.57;96423.56;5091819;28;1008;-65
2022/10/05 07:55:21;;;;;;;;;;;;;;;16.36;54.20;96424.66;5093355;28;981;-64
2022/10/05 07:57:52;;;;;;;;;;;;;;;16.63;53.60;96419.97;5093245;28;1044;-65
2022/10/05 08:00:20;;;;;;;;;;;;;;;16.95;52.81;96422.69;5092992;28;1906;-65
2022/10/05 08:03:06;;;;;;;;;;;;;;;17.26;52.43;96418.41;5092876;28;1112;-64
2022/10/05 08:05:36;;;;;;;;;;;;;;;17.73;51.47;96421.16;5092934;28;1031;-64
2022/10/05 08:08:02;;;;;;;;;;;;;;;18.42;50.75;96425.06;5128805;28;1318;-65
2022/10/05 08:10:32;;;;;;;;;;;;;;;18.81;48.86;96430.41;5116288;28;1079;-64
2022/10/05 08:13:09;;;;;;;;;;;;;;;18.85;49.39;96422.78;5117237;28;967;-64
2022/10/05 08:15:41;;;;;;;;;;;;;;;18.76;49.77;96415.69;5115962;28;1048;-65
2022/10/05 08:18:13;;;;;;;;;;;;;;;18.74;49.83;96418.59;5116991;28;1075;-64
2022/10/05 08:20:45;;;;;;;;;;;;;;;18.89;49.29;96413.25;5117109;28;2019;-65
2022/10/05 08:23:20;;;;;;;;;;;;;;;19.00;49.42;96423.66;5117137;28;972;-65
2022/10/05 08:25:55;;;;;;;;;;;;;;;19.57;47.66;96424.97;5116934;28;1008;-65
2022/10/05 08:28:21;;;;;;;;;;;;;;;21.36;43.38;96432.63;5116854;28;981;-65
2022/10/05 08:31:08;;;;;;;;;;;;;;;22.93;40.37;96434.66;5116983;28;1067;-65
2022/10/05 08:33:40;;;;;;;;;;;;;;;23.51;39.27;96442.28;5105237;28;1176;-66
2022/10/05 08:36:09;;;;;;;;;;;;;;;22.92;40.51;96426.72;5116910;28;961;-66
2022/10/05 08:38:36;;;;;;;;;;;;;;;22.23;41.87;96429.44;5116590;28;1016;-66
2022/10/05 08:41:14;;;;;;;;;;;;;;;21.88;42.71;96422.34;5115320;28;1988;-66
2022/10/05 08:43:59;;;;;;;;;;;;;;;21.56;43.20;96425.50;5116732;28;1012;-65
2022/10/05 08:46:37;;;;;;;;;;;;;;;22.80;40.87;96424.59;5115479;28;1059;-66
2022/10/05 08:49:03;;;;;;;;;;;;;;;24.04;37.90;96427.72;5116440;28;1065;-65
2022/10/05 08:51:48;;;;;;;;;;;;;;;22.83;39.77;96420.63;5116353;28;964;-65
2022/10/05 08:54:40;;;;;;;;;;;;;;;21.91;41.48;96409.19;5116302;28;1040;-65
2022/10/05 08:57:25;;;;;;;;;;;;;;;22.18;40.80;96414.75;5116358;28;1116;-65
2022/10/05 09:00:10;;;;;;;;;;;;;;;22.57;40.48;96410.47;5114848;28;1910;-65
2022/10/05 09:02:36;;;;;;;;;;;;;;;22.19;40.27;96408.25;5116067;28;1028;-65
2022/10/05 09:05:02;;;;;;;;;;;;;;;21.52;41.91;96399.72;5116346;28;1041;-66
2022/10/05 09:07:53;;;;;;;;;;;;;;;21.13;41.80;96394.81;5115962;28;1263;-66
2022/10/05 09:10:37;;;;;;;;;;;;;;;21.82;41.21;96396.78;5116044;28;985;-64
2022/10/05 09:13:19;;;;;;;;;;;;;;;24.20;38.14;96415.47;5116170;28;1012;-65
2022/10/05 09:16:03;;;;;;;;;;;;;;;31.69;27.96;96448.41;5116026;28;1042;-66
2022/10/05 09:18:55;;;;;;;;;;;;;;;36.64;21.38;96482.50;5114681;28;960;-66
2022/10/05 09:21:30;;;;;;;;;;;;;;;37.71;19.90;96487.81;5114095;28;1981;-66
2022/10/05 09:24:14;;;;;;;;;;;;;;;37.24;19.62;96493.22;5115739;28;957;-65
2022/10/05 09:26:40;;;;;;;;;;;;;;;37.52;19.93;96485.00;5114569;28;1040;-65
2022/10/05 09:29:24;;;;;;;;;;;;;;;33.76;22.43;96469.28;5115596;28;1030;-65
2022/10/05 09:31:53;;;;;;;;;;;;;;;27.40;30.31;96428.81;5115730;28;964;-65
2022/10/05 09:34:47;;;;;;;;;;;;;;;24.23;35.20;96415.06;5115726;28;1059;-66
2022/10/05 09:37:32;;;;;;;;;;;;;;;22.20;39.46;96379.97;5115526;28;1160;-65
2022/10/05 09:40:17;;;;;;;;;;;;;;;21.10;40.33;96377.00;5115571;28;1906;-65
2022/10/05 09:42:46;;;;;;;;;;;;;;;20.39;42.34;96366.91;5115484;28;1035;-64
2022/10/05 09:45:27;;;;;;;;;;;;;;;20.01;43.33;96366.28;5115447;28;977;-65
2022/10/05 09:48:08;;;;;;;;;;;;;;;19.72;43.07;96364.44;5115262;28;985;-64
2022/10/05 09:50:39;;;;;;;;;;;;;;;19.47;43.67;96371.00;5115488;28;1004;-65
2022/10/05 09:53:14;;;;;;;;;;;;;;;19.31;44.37;96374.75;5115459;28;976;-65
2022/10/05 09:55:59;;;;;;;;;;;;;;;19.25;45.39;96361.06;5115189;28;979;-64
2022/10/05 09:58:29;;;;;;;;;;;;;;;19.09;46.09;96368.34;5115053;28;1033;-64
2022/10/05 10:01:05;;;;;;;;;;;;;;;19.00;45.81;96368.63;5115079;28;1910;-65
2022/10/05 10:03:32;;;;;;;;;;;;;;;18.92;46.12;96367.66;5113963;28;983;-64
2022/10/05 10:05:57;;;;;;;;;;;;;;;18.98;46.19;96374.22;5110867;28;1373;-64
2022/10/05 10:08:30;;;;;;;;;;;;;;;18.98;45.98;96376.09;5094490;28;1174;-65
2022/10/05 10:11:19;;;;;;;;;;;;;;;19.04;45.79;96378.06;5094375;28;973;-64
2022/10/05 10:13:45;;;;;;;;;;;;;;;19.04;45.99;96372.63;5090200;28;1093;-64
2022/10/05 10:16:11;;;;;;;;;;;;;;;19.02;46.86;96370.09;5094345;28;1079;-65
2022/10/05 10:18:44;;;;;;;;;;;;;;;18.97;45.24;96363.56;5094393;28;1008;-65
2022/10/05 10:21:38;;;;;;;;;;;;;;;18.87;44.96;96361.94;5094243;28;1906;-65
2022/10/05 10:24:13;;;;;;;;;;;;;;;18.82;46.18;96350.84;5094525;28;965;-64
2022/10/05 10:26:58;;;;;;;;;;;;;;;18.85;46.22;96350.44;5094122;28;1095;-64
2022/10/05 10:29:24;;;;;;;;;;;;;;;18.86;46.40;96352.13;5094244;28;1081;-64
2022/10/05 10:32:01;;;;;;;;;;;;;;;18.86;45.72;96352.13;5092776;28;947;-64
2022/10/05 10:34:46;;;;;;;;;;;;;;;18.88;45.74;96349.25;5093095;28;1005;-64
2022/10/05 10:37:32;;;;;;;;;;;;;;;18.94;45.95;96348.50;5093996;28;1104;-65
2022/10/05 10:40:18;;;;;;;;;;;;;;;18.94;46.32;96347.69;5093918;28;2001;-66
2022/10/05 10:42:58;;;;;;;;;;;;;;;18.89;46.66;96351.78;5093845;28;1077;-66
2022/10/05 10:45:32;;;;;;;;;;;;;;;18.92;45.92;96345.97;5094074;28;1024;-65
2022/10/05 10:48:18;;;;;;;;;;;;;;;18.95;46.00;96352.06;5093852;28;1012;-66
2022/10/05 10:50:54;;;;;;;;;;;;;;;18.93;46.27;96341.41;5092371;28;1124;-64
2022/10/05 10:53:56;;;;;;;;;;;;;;;18.91;46.80;96349.72;5093888;28;1084;-65
2022/10/05 10:56:22;;;;;;;;;;;;;;;18.96;46.77;96337.50;5091441;28;1287;-65
2022/10/05 10:59:07;;;;;;;;;;;;;;;19.01;46.99;96332.34;5088201;28;1056;-65
2022/10/05 11:01:52;;;;;;;;;;;;;;;19.00;46.89;96333.38;5092585;28;1993;-64
2022/10/05 11:04:44;;;;;;;;;;;;;;;18.99;46.32;96327.13;5093547;28;901;-64
2022/10/05 11:07:44;;;;;;;;;;;;;;;19.01;46.52;96329.63;5105369;28;1287;-66
2022/10/05 11:10:22;;;;;;;;;;;;;;;18.98;46.27;96330.00;5113891;28;1084;-65
2022/10/05 11:12:51;;;;;;;;;;;;;;;19.00;45.76;96317.94;5112606;28;1071;-64
2022/10/05 11:15:35;;;;;;;;;;;;;;;18.99;46.37;96323.56;5112681;28;1076;-64
2022/10/05 11:18:07;;;;;;;;;;;;;;;19.02;45.55;96315.91;5113770;28;969;-64
2022/10/05 11:20:52;;;;;;;;;;;;;;;19.02;45.71;96317.78;5113726;28;1902;-64
2022/10/05 11:23:36;;;;;;;;;;;;;;;19.02;46.19;96310.47;5113825;28;1008;-64
2022/10/05 11:26:11;;;;;;;;;;;;;;;19.00;46.05;96306.28;5113659;28;993;-62
2022/10/05 11:28:56;;;;;;;;;;;;;;;18.93;46.25;96311.59;5113797;28;945;-64
2022/10/05 11:31:25;;;;;;;;;;;;;;;18.87;45.75;96305.03;5113602;28;1033;-64
2022/10/05 11:34:09;;;;;;;;;;;;;;;18.75;43.56;96298.38;5113515;28;1072;-64
2022/10/05 11:36:59;;;;;;;;;;;;;;;18.78;44.59;96300.72;5112243;28;1123;-65
2022/10/05 11:39:35;;;;;;;;;;;;;;;18.87;45.56;96288.78;5103164;28;1295;-65
2022/10/05 11:42:20;;;;;;;;;;;;;;;18.88;45.63;96289.63;5113635;28;1909;-64
2022/10/05 11:44:58;;;;;;;;;;;;;;;18.84;44.88;96297.28;5115283;28;1015;-64
2022/10/05 11:47:42;;;;;;;;;;;;;;;18.84;42.59;96291.03;5117971;28;1043;-64
2022/10/05 11:50:23;;;;;;;;;;;;;;;18.88;44.02;96290.47;5117629;28;1040;-64
2022/10/05 11:52:49;;;;;;;;;;;;;;;18.87;44.32;96286.06;5116243;28;1044;-64
2022/10/05 11:55:21;;;;;;;;;;;;;;;18.83;44.94;96279.34;5117601;28;1035;-65
2022/10/05 11:57:53;;;;;;;;;;;;;;;18.80;45.15;96268.91;5117350;28;1028;-64
2022/10/05 12:00:24;;;;;;;;;;;;;;;18.70;44.57;96268.28;5117576;27;1902;-64
2022/10/05 12:03:08;;;;;;;;;;;;;;;18.65;43.98;96268.84;5117459;28;1182;-64
2022/10/05 12:05:39;;;;;;;;;;;;;;;18.66;44.78;96248.84;5117433;28;1051;-64
2022/10/05 12:08:05;;;;;;;;;;;;;;;18.78;45.66;96256.50;5095511;28;1099;-63
2022/10/05 12:10:38;;;;;;;;;;;;;;;18.79;44.97;96253.63;5096855;28;1111;-64
2022/10/05 12:13:04;;;;;;;;;;;;;;;18.83;45.13;96254.94;5097037;28;1075;-64
2022/10/05 12:15:37;;;;;;;;;;;;;;;18.82;44.99;96250.56;5096706;28;1104;-64
2022/10/05 12:18:12;;;;;;;;;;;;;;;18.82;45.67;96242.44;5096846;28;1016;-64
2022/10/05 12:20:39;;;;;;;;;;;;;;;18.78;44.93;96238.41;5095243;28;1905;-65
2022/10/05 12:23:23;;;;;;;;;;;;;;;18.72;45.14;96241.84;5096870;28;956;-64
2022/10/05 12:25:49;;;;;;;;;;;;;;;18.69;44.07;96240.34;5096470;28;1128;-64
2022/10/05 12:28:18;;;;;;;;;;;;;;;18.65;43.38;96233.63;5096574;28;961;-64
2022/10/05 12:30:50;;;;;;;;;;;;;;;18.65;44.10;96240.91;5096358;28;1045;-64
2022/10/05 12:33:16;;;;;;;;;;;;;;;18.64;42.61;96239.22;5096367;28;1080;-64
2022/10/05 12:36:05;;;;;;;;;;;;;;;18.60;40.81;96246.88;5096470;28;1051;-64
2022/10/05 12:38:44;;;;;;;;;;;;;;;18.59;42.16;96242.50;5092207;28;1180;-65
2022/10/05 12:41:30;;;;;;;;;;;;;;;18.63;41.94;96237.53;5096254;28;1903;-64
2022/10/05 12:43:56;;;;;;;;;;;;;;;18.65;43.47;96240.91;5094880;28;1037;-65
2022/10/05 12:46:25;;;;;;;;;;;;;;;18.67;42.99;96244.28;5095157;28;1040;-63
2022/10/05 12:48:57;;;;;;;;;;;;;;;18.71;40.81;96246.41;5096184;28;1039;-64
2022/10/05 12:51:42;;;;;;;;;;;;;;;18.74;42.40;96250.63;5096160;28;1058;-63
2022/10/05 12:54:16;;;;;;;;;;;;;;;18.78;42.30;96257.38;5094751;28;1009;-64
2022/10/05 12:56:43;;;;;;;;;;;;;;;18.80;43.02;96252.63;5093713;28;953;-64
2022/10/05 12:59:23;;;;;;;;;;;;;;;18.75;42.88;96249.59;5095942;28;1104;-64
2022/10/05 13:01:56;;;;;;;;;;;;;;;18.73;43.19;96246.25;5095838;28;1910;-64
2022/10/05 13:04:25;;;;;;;;;;;;;;;18.70;43.05;96249.31;5095727;28;1084;-64
2022/10/05 13:06:51;;;;;;;;;;;;;;;18.72;42.51;96237.28;5106182;28;1287;-64
2022/10/05 13:09:21;;;;;;;;;;;;;;;18.76;42.19;96248.56;5114879;28;1126;-66
2022/10/05 13:11:49;;;;;;;;;;;;;;;18.79;42.63;96250.91;5116195;28;953;-64
2022/10/05 13:14:34;;;;;;;;;;;;;;;18.76;42.77;96248.56;5116105;28;1178;-64
2022/10/05 13:17:05;;;;;;;;;;;;;;;18.72;42.33;96256.25;5115881;28;981;-64
2022/10/05 13:19:53;;;;;;;;;;;;;;;18.67;43.01;96250.53;5116206;28;1039;-64
2022/10/05 13:22:58;;;;;;;;;;;;;;;18.65;42.70;96241.75;5115906;28;1108;-64
2022/10/05 13:25:31;;;;;;;;;;;;;;;18.69;42.79;96236.81;5093072;28;1233;-63
2022/10/05 13:28:10;;;;;;;;;;;;;;;18.69;42.71;96228.69;5093082;28;1052;-64
2022/10/05 13:30:39;;;;;;;;;;;;;;;18.70;42.84;96224.94;5098306;28;1112;-64
2022/10/05 13:33:14;;;;;;;;;;;;;;;18.74;42.58;96234.34;5115726;28;1037;-64
2022/10/05 13:35:45;;;;;;;;;;;;;;;18.76;41.62;96231.47;5115559;28;1099;-63
2022/10/05 13:38:29;;;;;;;;;;;;;;;18.76;42.18;96224.19;5115580;28;1040;-64
2022/10/05 13:40:56;;;;;;;;;;;;;;;18.75;41.80;96225.22;5115557;28;1888;-65
2022/10/05 13:43:37;;;;;;;;;;;;;;;18.77;42.54;96228.59;5115618;28;1035;-63
2022/10/05 13:46:06;;;;;;;;;;;;;;;18.78;42.69;96216.72;5114282;28;1065;-64
2022/10/05 13:48:51;;;;;;;;;;;;;;;18.78;42.55;96219.44;5115288;28;1076;-65